Rockville, MD (20848)

11:05 PM EDT on May 27, 2015 (GMT -0400)
Twinbrook | | Change Station
CLOSE
Current Station
Personal Weather Station
Location: Rockville, MD
Elevation: 377 ft
Nearby Weather Stations

Elev 377 ft 39.08 °N, 77.12 °W | Updated 8 seconds ago

Partly Cloudy
Partly Cloudy
71.2 °F
Feels Like 71.2 °F
N
0.0
Wind Variable Wind from East
Gusts 0.0 mph

Today
High -- | Low -- °F
--% Chance of Precip.
Yesterday
High -- | Low -- °F
Precip. -- in
5:46 AM 8:24 PM
Waxing Gibbous, 72% visible
Pressure 30.19 in
Visibility 10.0 miles
Clouds Clear
Dew Point 68 °F
Humidity 91%
Rainfall 0.00 in
Snow Depth Not available.
UV 0 out of 12
Pollen 7.10 out of 12
Air Quality Not available.
Flu Activity Sporadic
METAR KGAI 280255Z AUTO 11003KT 10SM CLR 21/19 A3019 RMK AO1 52007

More Conditions Fewer Conditions

Pressure 30.19 in
Visibility 10.0 miles
Clouds Clear
Dew Point 68 °F
Humidity 91%
Rainfall 0.00 in
Snow Depth Not available.
UV 0 out of 12
Pollen 7.10 out of 12
Air Quality Not available.
Flu Activity Sporadic
METAR KGAI 280255Z AUTO 11003KT 10SM CLR 21/19 A3019 RMK AO1 52007

More Conditions Fewer Conditions

10-Day Weather Forecast

Almanac

Astronomy

May. 27, 2015 Rise Set
Actual Time
Civil Twilight
Nautical Twilight
Astronomical Twilight
Moon
Length of Visible Light
Length of Day
Tomorrow will be .
, % of the Moon is Illuminated

Today's Extremes

State Highs State Lows

Community

WunderPhotos

Upload Photos

1,824,878 photos uploaded!

WunderBlogs® & News

Nearby

Air Quality

  Air Quality AQ Index Pollutant
Not available.

Snow Depth

Station Depth Elevation

Earthquake Activity

City Distance Mag. Time & Date
Minimum magnitude displayed is 2.5.

Coastal Water Temperatures

Place Temperature

Stations

Nearby Weather Stations

Station Location Temp. Windchill Dew Point Humidity Wind Precip. Elev Updated Type